sensor_id;sensor_type;location;lat;lon;timestamp;P1;durP1;ratioP1;P2;durP2;ratioP2
20443;SDS011;10381;53.730;10.010;2022-11-15T00:00:37;320.00;;;286.67;;
20443;SDS011;10381;53.730;10.010;2022-11-15T00:04:37;327.47;;;294.20;;
20443;SDS011;10381;53.730;10.010;2022-11-15T00:08:37;323.92;;;289.65;;
20443;SDS011;10381;53.730;10.010;2022-11-15T00:12:37;319.47;;;285.53;;
20443;SDS011;10381;53.730;10.010;2022-11-15T00:16:38;333.52;;;298.80;;
20443;SDS011;10381;53.730;10.010;2022-11-15T00:20:38;339.67;;;304.97;;
20443;SDS011;10381;53.730;10.010;2022-11-15T00:24:39;319.33;;;286.35;;
20443;SDS011;10381;53.730;10.010;2022-11-15T00:28:39;324.67;;;291.63;;
20443;SDS011;10381;53.730;10.010;2022-11-15T00:32:40;316.08;;;282.75;;
20443;SDS011;10381;53.730;10.010;2022-11-15T00:36:40;314.53;;;281.17;;
20443;SDS011;10381;53.730;10.010;2022-11-15T00:40:40;312.30;;;279.70;;
20443;SDS011;10381;53.730;10.010;2022-11-15T00:44:41;307.67;;;275.60;;
20443;SDS011;10381;53.730;10.010;2022-11-15T00:48:41;306.20;;;273.73;;
20443;SDS011;10381;53.730;10.010;2022-11-15T00:52:41;291.00;;;260.53;;
20443;SDS011;10381;53.730;10.010;2022-11-15T00:56:42;309.90;;;277.40;;
20443;SDS011;10381;53.730;10.010;2022-11-15T01:00:42;291.00;;;260.53;;
20443;SDS011;10381;53.730;10.010;2022-11-15T01:04:43;297.33;;;265.63;;
20443;SDS011;10381;53.730;10.010;2022-11-15T01:08:43;298.07;;;268.03;;
20443;SDS011;10381;53.730;10.010;2022-11-15T01:12:43;300.30;;;269.67;;
20443;SDS011;10381;53.730;10.010;2022-11-15T01:16:44;293.00;;;261.90;;
20443;SDS011;10381;53.730;10.010;2022-11-15T01:20:44;290.05;;;259.42;;
20443;SDS011;10381;53.730;10.010;2022-11-15T01:24:44;280.47;;;251.20;;
20443;SDS011;10381;53.730;10.010;2022-11-15T01:28:44;284.30;;;255.45;;
20443;SDS011;10381;53.730;10.010;2022-11-15T01:32:45;270.43;;;241.23;;
20443;SDS011;10381;53.730;10.010;2022-11-15T01:36:45;272.73;;;243.63;;
20443;SDS011;10381;53.730;10.010;2022-11-15T01:40:45;271.10;;;240.13;;
20443;SDS011;10381;53.730;10.010;2022-11-15T01:44:49;274.00;;;236.18;;
20443;SDS011;10381;53.730;10.010;2022-11-15T01:48:51;266.30;;;237.48;;
20443;SDS011;10381;53.730;10.010;2022-11-15T01:52:54;263.92;;;236.45;;
20443;SDS011;10381;53.730;10.010;2022-11-15T01:56:55;266.23;;;237.38;;
20443;SDS011;10381;53.730;10.010;2022-11-15T02:01:01;253.63;;;225.95;;
20443;SDS011;10381;53.730;10.010;2022-11-15T02:05:02;262.77;;;235.77;;
20443;SDS011;10381;53.730;10.010;2022-11-15T02:09:02;260.95;;;234.07;;
20443;SDS011;10381;53.730;10.010;2022-11-15T02:13:03;262.52;;;235.70;;
20443;SDS011;10381;53.730;10.010;2022-11-15T02:21:21;277.90;;;248.88;;
20443;SDS011;10381;53.730;10.010;2022-11-15T02:29:47;297.35;;;267.02;;
20443;SDS011;10381;53.730;10.010;2022-11-15T02:34:00;291.95;;;260.38;;
20443;SDS011;10381;53.730;10.010;2022-11-15T02:38:12;295.30;;;265.55;;
20443;SDS011;10381;53.730;10.010;2022-11-15T02:42:59;292.27;;;262.42;;
20443;SDS011;10381;53.730;10.010;2022-11-15T02:47:23;297.70;;;267.48;;
20443;SDS011;10381;53.730;10.010;2022-11-15T02:51:26;281.13;;;251.77;;
20443;SDS011;10381;53.730;10.010;2022-11-15T03:04:09;282.10;;;253.38;;
20443;SDS011;10381;53.730;10.010;2022-11-15T03:12:54;295.88;;;266.25;;
20443;SDS011;10381;53.730;10.010;2022-11-15T03:17:15;296.10;;;265.70;;
20443;SDS011;10381;53.730;10.010;2022-11-15T03:21:20;284.33;;;254.73;;
20443;SDS011;10381;53.730;10.010;2022-11-15T03:25:22;280.75;;;251.60;;
20443;SDS011;10381;53.730;10.010;2022-11-15T03:29:27;271.80;;;244.75;;
20443;SDS011;10381;53.730;10.010;2022-11-15T03:33:33;267.63;;;240.30;;
20443;SDS011;10381;53.730;10.010;2022-11-15T03:37:40;263.80;;;236.88;;
20443;SDS011;10381;53.730;10.010;2022-11-15T03:41:50;261.65;;;234.40;;
20443;SDS011;10381;53.730;10.010;2022-11-15T03:49:59;257.05;;;230.52;;
20443;SDS011;10381;53.730;10.010;2022-11-15T03:54:06;264.92;;;237.15;;
20443;SDS011;10381;53.730;10.010;2022-11-15T03:58:06;260.40;;;233.10;;
20443;SDS011;10381;53.730;10.010;2022-11-15T04:02:07;251.98;;;225.35;;
20443;SDS011;10381;53.730;10.010;2022-11-15T04:06:07;251.30;;;226.20;;
20443;SDS011;10381;53.730;10.010;2022-11-15T04:10:08;266.93;;;239.23;;
20443;SDS011;10381;53.730;10.010;2022-11-15T04:14:12;265.23;;;238.68;;
20443;SDS011;10381;53.730;10.010;2022-11-15T04:18:13;260.50;;;233.27;;
20443;SDS011;10381;53.730;10.010;2022-11-15T04:22:13;264.00;;;236.33;;
20443;SDS011;10381;53.730;10.010;2022-11-15T04:26:32;255.55;;;229.70;;
20443;SDS011;10381;53.730;10.010;2022-11-15T04:30:33;249.77;;;223.25;;
20443;SDS011;10381;53.730;10.010;2022-11-15T04:34:34;250.93;;;225.20;;
20443;SDS011;10381;53.730;10.010;2022-11-15T04:38:35;241.23;;;216.32;;
20443;SDS011;10381;53.730;10.010;2022-11-15T04:42:36;253.82;;;227.75;;
20443;SDS011;10381;53.730;10.010;2022-11-15T04:46:36;236.25;;;211.27;;
20443;SDS011;10381;53.730;10.010;2022-11-15T04:50:36;260.67;;;233.40;;
20443;SDS011;10381;53.730;10.010;2022-11-15T04:54:37;265.80;;;239.07;;
20443;SDS011;10381;53.730;10.010;2022-11-15T04:58:37;273.73;;;246.20;;
20443;SDS011;10381;53.730;10.010;2022-11-15T05:02:37;277.45;;;250.15;;
20443;SDS011;10381;53.730;10.010;2022-11-15T05:06:56;291.10;;;261.40;;
20443;SDS011;10381;53.730;10.010;2022-11-15T05:10:56;289.27;;;260.17;;
20443;SDS011;10381;53.730;10.010;2022-11-15T05:14:57;299.13;;;268.10;;
20443;SDS011;10381;53.730;10.010;2022-11-15T05:18:57;311.27;;;279.97;;
20443;SDS011;10381;53.730;10.010;2022-11-15T05:22:57;328.17;;;295.53;;
20443;SDS011;10381;53.730;10.010;2022-11-15T05:26:57;323.25;;;291.00;;
20443;SDS011;10381;53.730;10.010;2022-11-15T05:31:05;343.73;;;308.95;;
20443;SDS011;10381;53.730;10.010;2022-11-15T05:35:07;344.77;;;309.90;;
20443;SDS011;10381;53.730;10.010;2022-11-15T05:39:12;350.38;;;315.10;;
20443;SDS011;10381;53.730;10.010;2022-11-15T05:43:13;347.90;;;312.50;;
20443;SDS011;10381;53.730;10.010;2022-11-15T05:47:19;357.17;;;321.00;;
20443;SDS011;10381;53.730;10.010;2022-11-15T05:51:22;358.13;;;321.70;;
20443;SDS011;10381;53.730;10.010;2022-11-15T05:55:23;375.75;;;338.63;;
20443;SDS011;10381;53.730;10.010;2022-11-15T05:59:23;373.02;;;335.27;;
20443;SDS011;10381;53.730;10.010;2022-11-15T06:03:24;382.33;;;343.60;;
20443;SDS011;10381;53.730;10.010;2022-11-15T06:07:24;391.83;;;351.80;;
20443;SDS011;10381;53.730;10.010;2022-11-15T06:11:24;389.40;;;348.23;;
20443;SDS011;10381;53.730;10.010;2022-11-15T06:15:24;412.57;;;369.80;;
20443;SDS011;10381;53.730;10.010;2022-11-15T06:19:25;403.40;;;360.10;;
20443;SDS011;10381;53.730;10.010;2022-11-15T06:23:25;412.10;;;369.10;;
20443;SDS011;10381;53.730;10.010;2022-11-15T06:27:26;431.33;;;386.48;;
20443;SDS011;10381;53.730;10.010;2022-11-15T06:31:26;459.20;;;413.30;;
20443;SDS011;10381;53.730;10.010;2022-11-15T06:35:27;480.83;;;432.07;;
20443;SDS011;10381;53.730;10.010;2022-11-15T06:39:28;485.50;;;436.48;;
20443;SDS011;10381;53.730;10.010;2022-11-15T06:43:28;492.53;;;442.90;;
20443;SDS011;10381;53.730;10.010;2022-11-15T06:47:28;490.73;;;439.92;;
20443;SDS011;10381;53.730;10.010;2022-11-15T06:51:29;489.73;;;439.57;;
20443;SDS011;10381;53.730;10.010;2022-11-15T06:55:29;515.10;;;463.40;;
20443;SDS011;10381;53.730;10.010;2022-11-15T06:59:29;506.77;;;455.38;;
20443;SDS011;10381;53.730;10.010;2022-11-15T07:03:30;514.58;;;462.70;;
20443;SDS011;10381;53.730;10.010;2022-11-15T07:07:31;509.95;;;458.55;;
20443;SDS011;10381;53.730;10.010;2022-11-15T07:11:32;520.17;;;466.73;;
20443;SDS011;10381;53.730;10.010;2022-11-15T07:15:33;539.30;;;484.92;;
20443;SDS011;10381;53.730;10.010;2022-11-15T07:19:33;566.83;;;511.47;;
20443;SDS011;10381;53.730;10.010;2022-11-15T07:23:35;559.50;;;504.30;;
20443;SDS011;10381;53.730;10.010;2022-11-15T07:27:37;560.53;;;505.40;;
20443;SDS011;10381;53.730;10.010;2022-11-15T07:31:38;561.17;;;506.45;;
20443;SDS011;10381;53.730;10.010;2022-11-15T07:35:38;564.90;;;510.27;;
20443;SDS011;10381;53.730;10.010;2022-11-15T07:39:39;570.13;;;514.60;;
20443;SDS011;10381;53.730;10.010;2022-11-15T07:43:39;582.03;;;525.63;;
20443;SDS011;10381;53.730;10.010;2022-11-15T07:47:39;552.07;;;497.60;;
20443;SDS011;10381;53.730;10.010;2022-11-15T07:51:40;571.13;;;516.27;;
20443;SDS011;10381;53.730;10.010;2022-11-15T07:55:40;573.43;;;518.50;;
20443;SDS011;10381;53.730;10.010;2022-11-15T07:59:41;560.85;;;506.17;;
20443;SDS011;10381;53.730;10.010;2022-11-15T08:03:41;578.83;;;523.90;;
20443;SDS011;10381;53.730;10.010;2022-11-15T08:07:42;582.42;;;526.70;;
20443;SDS011;10381;53.730;10.010;2022-11-15T08:11:42;584.03;;;528.40;;
20443;SDS011;10381;53.730;10.010;2022-11-15T08:15:42;575.67;;;520.70;;
20443;SDS011;10381;53.730;10.010;2022-11-15T08:19:43;580.40;;;525.17;;
20443;SDS011;10381;53.730;10.010;2022-11-15T08:23:44;579.10;;;524.22;;
20443;SDS011;10381;53.730;10.010;2022-11-15T08:27:44;589.35;;;534.15;;
20443;SDS011;10381;53.730;10.010;2022-11-15T08:31:45;583.10;;;528.38;;
20443;SDS011;10381;53.730;10.010;2022-11-15T08:35:45;586.40;;;531.03;;
20443;SDS011;10381;53.730;10.010;2022-11-15T08:39:45;585.42;;;530.95;;
20443;SDS011;10381;53.730;10.010;2022-11-15T08:43:46;574.70;;;521.33;;
20443;SDS011;10381;53.730;10.010;2022-11-15T08:47:46;587.37;;;532.83;;
20443;SDS011;10381;53.730;10.010;2022-11-15T08:51:46;598.75;;;543.78;;
20443;SDS011;10381;53.730;10.010;2022-11-15T08:55:47;588.25;;;533.83;;
20443;SDS011;10381;53.730;10.010;2022-11-15T08:59:47;591.92;;;537.25;;
20443;SDS011;10381;53.730;10.010;2022-11-15T09:03:48;571.10;;;518.72;;
20443;SDS011;10381;53.730;10.010;2022-11-15T09:07:52;581.30;;;528.23;;
20443;SDS011;10381;53.730;10.010;2022-11-15T09:11:54;592.95;;;538.78;;
20443;SDS011;10381;53.730;10.010;2022-11-15T09:15:57;573.70;;;521.20;;
20443;SDS011;10381;53.730;10.010;2022-11-15T09:19:59;562.92;;;511.30;;
20443;SDS011;10381;53.730;10.010;2022-11-15T09:23:59;584.93;;;532.07;;
20443;SDS011;10381;53.730;10.010;2022-11-15T09:27:59;572.42;;;519.65;;
20443;SDS011;10381;53.730;10.010;2022-11-15T09:32:00;567.10;;;516.22;;
20443;SDS011;10381;53.730;10.010;2022-11-15T09:36:01;556.65;;;506.85;;
20443;SDS011;10381;53.730;10.010;2022-11-15T09:40:03;544.40;;;495.77;;
20443;SDS011;10381;53.730;10.010;2022-11-15T09:52:53;468.95;;;429.23;;
20443;SDS011;10381;53.730;10.010;2022-11-15T09:57:05;432.08;;;397.27;;
20443;SDS011;10381;53.730;10.010;2022-11-15T10:01:12;408.08;;;375.13;;
20443;SDS011;10381;53.730;10.010;2022-11-15T10:05:20;375.20;;;345.38;;
20443;SDS011;10381;53.730;10.010;2022-11-15T10:09:27;354.60;;;326.75;;
20443;SDS011;10381;53.730;10.010;2022-11-15T10:13:35;325.00;;;299.98;;
20443;SDS011;10381;53.730;10.010;2022-11-15T10:26:17;185.02;;;169.40;;
20443;SDS011;10381;53.730;10.010;2022-11-15T10:30:18;138.30;;;126.18;;
20443;SDS011;10381;53.730;10.010;2022-11-15T10:34:20;119.13;;;107.70;;
20443;SDS011;10381;53.730;10.010;2022-11-15T10:38:21;142.18;;;128.90;;
20443;SDS011;10381;53.730;10.010;2022-11-15T10:42:28;117.00;;;106.13;;
20443;SDS011;10381;53.730;10.010;2022-11-15T10:46:29;127.55;;;116.25;;
20443;SDS011;10381;53.730;10.010;2022-11-15T10:50:30;127.72;;;116.40;;
20443;SDS011;10381;53.730;10.010;2022-11-15T10:58:58;115.07;;;104.40;;
20443;SDS011;10381;53.730;10.010;2022-11-15T11:03:00;101.85;;;92.20;;
20443;SDS011;10381;53.730;10.010;2022-11-15T11:07:02;91.78;;;82.82;;
20443;SDS011;10381;53.730;10.010;2022-11-15T11:11:21;88.85;;;80.13;;
20443;SDS011;10381;53.730;10.010;2022-11-15T11:15:22;91.00;;;82.53;;
20443;SDS011;10381;53.730;10.010;2022-11-15T11:41:04;86.38;;;78.47;;
20443;SDS011;10381;53.730;10.010;2022-11-15T11:49:18;78.75;;;71.35;;
20443;SDS011;10381;53.730;10.010;2022-11-15T11:53:26;74.45;;;67.50;;
20443;SDS011;10381;53.730;10.010;2022-11-15T12:01:43;79.57;;;71.72;;
20443;SDS011;10381;53.730;10.010;2022-11-15T12:05:47;71.85;;;64.80;;
20443;SDS011;10381;53.730;10.010;2022-11-15T12:14:32;52.15;;;47.00;;
20443;SDS011;10381;53.730;10.010;2022-11-15T12:18:52;53.83;;;48.70;;
20443;SDS011;10381;53.730;10.010;2022-11-15T12:27:21;49.20;;;44.28;;
20443;SDS011;10381;53.730;10.010;2022-11-15T12:31:41;46.83;;;41.67;;
20443;SDS011;10381;53.730;10.010;2022-11-15T12:35:56;43.53;;;36.50;;
20443;SDS011;10381;53.730;10.010;2022-11-15T12:52:37;51.08;;;46.15;;
20443;SDS011;10381;53.730;10.010;2022-11-15T13:13:43;42.45;;;36.90;;
20443;SDS011;10381;53.730;10.010;2022-11-15T13:21:55;39.00;;;34.53;;
20443;SDS011;10381;53.730;10.010;2022-11-15T13:26:15;38.88;;;33.13;;
20443;SDS011;10381;53.730;10.010;2022-11-15T13:30:21;33.75;;;29.05;;
20443;SDS011;10381;53.730;10.010;2022-11-15T13:38:37;32.72;;;26.60;;
20443;SDS011;10381;53.730;10.010;2022-11-15T13:42:38;33.03;;;27.55;;
20443;SDS011;10381;53.730;10.010;2022-11-15T13:46:39;38.83;;;32.93;;
20443;SDS011;10381;53.730;10.010;2022-11-15T13:50:39;39.60;;;28.17;;
20443;SDS011;10381;53.730;10.010;2022-11-15T13:58:44;38.28;;;33.08;;
20443;SDS011;10381;53.730;10.010;2022-11-15T14:02:44;38.25;;;34.13;;
20443;SDS011;10381;53.730;10.010;2022-11-15T14:06:49;45.92;;;41.05;;
20443;SDS011;10381;53.730;10.010;2022-11-15T14:15:19;45.38;;;40.65;;
20443;SDS011;10381;53.730;10.010;2022-11-15T14:23:26;54.85;;;49.35;;
20443;SDS011;10381;53.730;10.010;2022-11-15T14:27:27;64.28;;;57.95;;
20443;SDS011;10381;53.730;10.010;2022-11-15T14:31:29;61.55;;;55.90;;
20443;SDS011;10381;53.730;10.010;2022-11-15T14:35:29;71.50;;;64.50;;
20443;SDS011;10381;53.730;10.010;2022-11-15T14:39:29;81.50;;;73.70;;
20443;SDS011;10381;53.730;10.010;2022-11-15T14:43:29;90.17;;;81.67;;
20443;SDS011;10381;53.730;10.010;2022-11-15T14:47:30;92.15;;;84.20;;
20443;SDS011;10381;53.730;10.010;2022-11-15T14:51:30;102.83;;;94.10;;
20443;SDS011;10381;53.730;10.010;2022-11-15T14:55:35;120.43;;;110.05;;
20443;SDS011;10381;53.730;10.010;2022-11-15T14:59:36;139.25;;;127.43;;
20443;SDS011;10381;53.730;10.010;2022-11-15T15:03:36;153.60;;;140.07;;
20443;SDS011;10381;53.730;10.010;2022-11-15T15:07:36;161.20;;;147.93;;
20443;SDS011;10381;53.730;10.010;2022-11-15T15:11:37;182.70;;;167.77;;
20443;SDS011;10381;53.730;10.010;2022-11-15T15:15:37;203.83;;;187.30;;
20443;SDS011;10381;53.730;10.010;2022-11-15T15:19:37;210.98;;;193.93;;
20443;SDS011;10381;53.730;10.010;2022-11-15T15:23:38;227.75;;;209.32;;
20443;SDS011;10381;53.730;10.010;2022-11-15T15:27:38;241.47;;;221.63;;
20443;SDS011;10381;53.730;10.010;2022-11-15T15:31:38;257.70;;;236.73;;
20443;SDS011;10381;53.730;10.010;2022-11-15T15:35:39;265.47;;;243.73;;
20443;SDS011;10381;53.730;10.010;2022-11-15T15:39:39;279.75;;;256.75;;
20443;SDS011;10381;53.730;10.010;2022-11-15T15:43:39;278.00;;;254.27;;
20443;SDS011;10381;53.730;10.010;2022-11-15T15:47:40;288.83;;;263.85;;
20443;SDS011;10381;53.730;10.010;2022-11-15T15:51:41;298.63;;;272.77;;
20443;SDS011;10381;53.730;10.010;2022-11-15T15:55:41;306.00;;;279.93;;
20443;SDS011;10381;53.730;10.010;2022-11-15T15:59:42;311.93;;;284.80;;
20443;SDS011;10381;53.730;10.010;2022-11-15T16:03:42;324.63;;;296.13;;
20443;SDS011;10381;53.730;10.010;2022-11-15T16:07:42;317.45;;;289.30;;
20443;SDS011;10381;53.730;10.010;2022-11-15T16:11:44;325.55;;;296.65;;
20443;SDS011;10381;53.730;10.010;2022-11-15T16:15:45;329.48;;;299.70;;
20443;SDS011;10381;53.730;10.010;2022-11-15T16:19:50;341.30;;;310.10;;
20443;SDS011;10381;53.730;10.010;2022-11-15T16:23:51;332.17;;;301.08;;
20443;SDS011;10381;53.730;10.010;2022-11-15T16:27:51;339.75;;;307.92;;
20443;SDS011;10381;53.730;10.010;2022-11-15T16:31:52;350.77;;;318.00;;
20443;SDS011;10381;53.730;10.010;2022-11-15T16:35:52;347.23;;;315.53;;
20443;SDS011;10381;53.730;10.010;2022-11-15T16:39:53;350.53;;;318.40;;
20443;SDS011;10381;53.730;10.010;2022-11-15T16:43:53;350.38;;;318.70;;
20443;SDS011;10381;53.730;10.010;2022-11-15T16:47:53;351.15;;;319.17;;
20443;SDS011;10381;53.730;10.010;2022-11-15T16:51:54;349.42;;;317.52;;
20443;SDS011;10381;53.730;10.010;2022-11-15T16:55:55;351.98;;;320.30;;
20443;SDS011;10381;53.730;10.010;2022-11-15T16:59:55;350.70;;;319.33;;
20443;SDS011;10381;53.730;10.010;2022-11-15T17:03:56;352.13;;;320.90;;
20443;SDS011;10381;53.730;10.010;2022-11-15T17:07:57;359.42;;;327.00;;
20443;SDS011;10381;53.730;10.010;2022-11-15T17:11:57;369.20;;;335.90;;
20443;SDS011;10381;53.730;10.010;2022-11-15T17:16:07;369.93;;;335.53;;
20443;SDS011;10381;53.730;10.010;2022-11-15T17:20:12;362.10;;;328.50;;
20443;SDS011;10381;53.730;10.010;2022-11-15T17:24:14;366.42;;;332.92;;
20443;SDS011;10381;53.730;10.010;2022-11-15T17:28:16;376.40;;;342.08;;
20443;SDS011;10381;53.730;10.010;2022-11-15T17:32:16;386.00;;;351.03;;
20443;SDS011;10381;53.730;10.010;2022-11-15T17:36:16;371.87;;;337.63;;
20443;SDS011;10381;53.730;10.010;2022-11-15T17:40:16;372.30;;;337.73;;
20443;SDS011;10381;53.730;10.010;2022-11-15T17:44:17;389.83;;;353.00;;
20443;SDS011;10381;53.730;10.010;2022-11-15T17:48:17;384.83;;;349.60;;
20443;SDS011;10381;53.730;10.010;2022-11-15T17:52:17;394.77;;;358.33;;
20443;SDS011;10381;53.730;10.010;2022-11-15T17:56:18;399.57;;;362.87;;
20443;SDS011;10381;53.730;10.010;2022-11-15T18:00:20;386.75;;;350.63;;
20443;SDS011;10381;53.730;10.010;2022-11-15T18:04:20;396.35;;;359.63;;
20443;SDS011;10381;53.730;10.010;2022-11-15T18:08:27;388.00;;;351.83;;
20443;SDS011;10381;53.730;10.010;2022-11-15T18:12:27;400.92;;;363.95;;
20443;SDS011;10381;53.730;10.010;2022-11-15T18:16:28;404.02;;;366.92;;
20443;SDS011;10381;53.730;10.010;2022-11-15T18:20:30;416.88;;;378.42;;
20443;SDS011;10381;53.730;10.010;2022-11-15T18:24:31;412.90;;;374.95;;
20443;SDS011;10381;53.730;10.010;2022-11-15T18:28:34;412.15;;;374.58;;
20443;SDS011;10381;53.730;10.010;2022-11-15T18:32:36;406.30;;;369.40;;
20443;SDS011;10381;53.730;10.010;2022-11-15T18:36:37;404.63;;;368.13;;
20443;SDS011;10381;53.730;10.010;2022-11-15T18:40:38;402.95;;;366.80;;
20443;SDS011;10381;53.730;10.010;2022-11-15T18:44:38;402.90;;;366.03;;
20443;SDS011;10381;53.730;10.010;2022-11-15T18:48:39;403.63;;;367.73;;
20443;SDS011;10381;53.730;10.010;2022-11-15T18:52:41;408.95;;;372.60;;
20443;SDS011;10381;53.730;10.010;2022-11-15T18:56:42;397.10;;;362.23;;
20443;SDS011;10381;53.730;10.010;2022-11-15T19:00:46;394.25;;;359.80;;
20443;SDS011;10381;53.730;10.010;2022-11-15T19:04:46;382.50;;;349.03;;
20443;SDS011;10381;53.730;10.010;2022-11-15T19:08:47;383.35;;;349.67;;
20443;SDS011;10381;53.730;10.010;2022-11-15T19:12:49;380.15;;;346.15;;
20443;SDS011;10381;53.730;10.010;2022-11-15T19:16:49;373.63;;;340.13;;
20443;SDS011;10381;53.730;10.010;2022-11-15T19:20:51;382.23;;;347.65;;
20443;SDS011;10381;53.730;10.010;2022-11-15T19:24:51;373.30;;;339.60;;
20443;SDS011;10381;53.730;10.010;2022-11-15T19:28:52;377.53;;;343.03;;
20443;SDS011;10381;53.730;10.010;2022-11-15T19:32:54;377.85;;;344.23;;
20443;SDS011;10381;53.730;10.010;2022-11-15T19:36:54;375.37;;;342.13;;
20443;SDS011;10381;53.730;10.010;2022-11-15T19:40:58;356.95;;;326.23;;
20443;SDS011;10381;53.730;10.010;2022-11-15T19:44:59;353.85;;;323.42;;
20443;SDS011;10381;53.730;10.010;2022-11-15T19:48:59;347.97;;;318.87;;
20443;SDS011;10381;53.730;10.010;2022-11-15T19:53:00;335.80;;;308.33;;
20443;SDS011;10381;53.730;10.010;2022-11-15T19:57:00;333.90;;;306.70;;
20443;SDS011;10381;53.730;10.010;2022-11-15T20:05:04;334.83;;;306.95;;
20443;SDS011;10381;53.730;10.010;2022-11-15T20:09:05;314.13;;;288.75;;
20443;SDS011;10381;53.730;10.010;2022-11-15T20:13:05;304.95;;;280.42;;
20443;SDS011;10381;53.730;10.010;2022-11-15T20:17:06;304.07;;;279.77;;
20443;SDS011;10381;53.730;10.010;2022-11-15T20:21:07;298.33;;;274.60;;
20443;SDS011;10381;53.730;10.010;2022-11-15T20:25:08;288.58;;;265.80;;
20443;SDS011;10381;53.730;10.010;2022-11-15T20:29:09;268.55;;;247.55;;
20443;SDS011;10381;53.730;10.010;2022-11-15T20:33:10;250.60;;;230.57;;
20443;SDS011;10381;53.730;10.010;2022-11-15T20:37:13;254.52;;;234.02;;
20443;SDS011;10381;53.730;10.010;2022-11-15T20:41:14;250.50;;;229.80;;
20443;SDS011;10381;53.730;10.010;2022-11-15T20:45:14;249.33;;;229.53;;
20443;SDS011;10381;53.730;10.010;2022-11-15T20:49:14;247.55;;;227.70;;
20443;SDS011;10381;53.730;10.010;2022-11-15T20:53:15;247.93;;;228.00;;
20443;SDS011;10381;53.730;10.010;2022-11-15T20:57:17;265.45;;;244.18;;
20443;SDS011;10381;53.730;10.010;2022-11-15T21:01:19;258.17;;;236.98;;
20443;SDS011;10381;53.730;10.010;2022-11-15T21:05:23;250.15;;;229.57;;
20443;SDS011;10381;53.730;10.010;2022-11-15T21:09:23;255.70;;;234.87;;
20443;SDS011;10381;53.730;10.010;2022-11-15T21:13:42;256.83;;;235.48;;
20443;SDS011;10381;53.730;10.010;2022-11-15T21:17:42;240.90;;;221.70;;
20443;SDS011;10381;53.730;10.010;2022-11-15T21:21:42;236.63;;;217.63;;
20443;SDS011;10381;53.730;10.010;2022-11-15T21:25:49;243.50;;;223.53;;
20443;SDS011;10381;53.730;10.010;2022-11-15T21:29:51;241.30;;;221.98;;
20443;SDS011;10381;53.730;10.010;2022-11-15T21:33:51;242.27;;;222.25;;
20443;SDS011;10381;53.730;10.010;2022-11-15T21:37:51;239.97;;;220.10;;
20443;SDS011;10381;53.730;10.010;2022-11-15T21:41:52;235.30;;;215.80;;
20443;SDS011;10381;53.730;10.010;2022-11-15T21:45:59;239.63;;;220.00;;
20443;SDS011;10381;53.730;10.010;2022-11-15T21:50:01;226.52;;;207.63;;
20443;SDS011;10381;53.730;10.010;2022-11-15T21:54:01;234.57;;;214.70;;
20443;SDS011;10381;53.730;10.010;2022-11-15T21:58:01;245.80;;;224.60;;
20443;SDS011;10381;53.730;10.010;2022-11-15T22:02:01;231.35;;;212.02;;
20443;SDS011;10381;53.730;10.010;2022-11-15T22:06:14;239.00;;;218.75;;
20443;SDS011;10381;53.730;10.010;2022-11-15T22:10:15;237.75;;;218.20;;
20443;SDS011;10381;53.730;10.010;2022-11-15T22:14:16;246.75;;;226.40;;
20443;SDS011;10381;53.730;10.010;2022-11-15T22:18:16;239.43;;;218.50;;
20443;SDS011;10381;53.730;10.010;2022-11-15T22:22:17;244.90;;;223.38;;
20443;SDS011;10381;53.730;10.010;2022-11-15T22:26:18;242.95;;;222.82;;
20443;SDS011;10381;53.730;10.010;2022-11-15T22:30:19;239.55;;;217.32;;
20443;SDS011;10381;53.730;10.010;2022-11-15T22:34:20;234.98;;;215.07;;
20443;SDS011;10381;53.730;10.010;2022-11-15T22:38:20;244.18;;;223.40;;
20443;SDS011;10381;53.730;10.010;2022-11-15T22:42:21;237.10;;;216.70;;
20443;SDS011;10381;53.730;10.010;2022-11-15T22:46:21;239.50;;;218.93;;
20443;SDS011;10381;53.730;10.010;2022-11-15T22:50:22;235.15;;;215.35;;
20443;SDS011;10381;53.730;10.010;2022-11-15T22:54:23;226.98;;;207.55;;
20443;SDS011;10381;53.730;10.010;2022-11-15T22:58:24;240.60;;;220.02;;
20443;SDS011;10381;53.730;10.010;2022-11-15T23:02:26;227.07;;;207.32;;
20443;SDS011;10381;53.730;10.010;2022-11-15T23:06:26;234.82;;;214.32;;
20443;SDS011;10381;53.730;10.010;2022-11-15T23:10:26;230.15;;;210.13;;
20443;SDS011;10381;53.730;10.010;2022-11-15T23:14:45;233.90;;;213.52;;
20443;SDS011;10381;53.730;10.010;2022-11-15T23:18:46;242.18;;;221.57;;
20443;SDS011;10381;53.730;10.010;2022-11-15T23:22:46;238.13;;;217.90;;
20443;SDS011;10381;53.730;10.010;2022-11-15T23:26:47;232.27;;;212.38;;
20443;SDS011;10381;53.730;10.010;2022-11-15T23:30:49;255.75;;;234.05;;
20443;SDS011;10381;53.730;10.010;2022-11-15T23:35:08;278.08;;;254.05;;
20443;SDS011;10381;53.730;10.010;2022-11-15T23:39:08;292.50;;;266.63;;
20443;SDS011;10381;53.730;10.010;2022-11-15T23:43:09;314.55;;;285.40;;
20443;SDS011;10381;53.730;10.010;2022-11-15T23:47:09;319.95;;;289.85;;
20443;SDS011;10381;53.730;10.010;2022-11-15T23:51:09;326.15;;;294.25;;
20443;SDS011;10381;53.730;10.010;2022-11-15T23:55:10;335.95;;;303.88;;
20443;SDS011;10381;53.730;10.010;2022-11-15T23:59:10;353.65;;;319.58;;
